Time;durP1;ratioP1;P1;durP2;ratioP2;P2;SDS_P1;SDS_P2;PMS_P1;PMS_P2;Temp;Humidity;BMP_temperature;BMP_pressure;BME280_temperature;BME280_humidity;BME280_pressure;Samples;Min_cycle;Max_cycle;Signal;HPM_P1;HPM_P2
2021/06/08 15:26:48;;;;;;;;;;;;;;;;;;;;;
2021/06/08 15:29:46;;;;;;;5.25;4.75;;;24.70;54.50;;;;;;5110017;28;20032;-87
2021/06/08 15:32:16;;;;;;;6.07;5.32;;;24.70;54.80;;;;;;5072553;28;20053;-85
2021/06/08 15:38:31;;;;;;;5.28;4.78;;;24.70;53.30;;;;;;5075451;28;20047;-86
2021/06/08 15:41:00;;;;;;;9.48;6.50;;;24.70;52.40;;;;;;5049156;28;20068;-87
2021/06/08 15:43:50;;;;;;;;;;;;;;;;;;;;;
2021/06/08 15:47:02;;;;;;;21.83;13.80;;;24.70;53.20;;;;;;5032184;28;20037;-87
2021/06/08 15:53:59;;;;;;;;;;;;;;;;;;;;;
2021/06/08 15:57:05;;;;;;;;;;;;;;;;;;;;;
2021/06/08 16:00:04;;;;;;;4.78;4.28;;;24.60;53.70;;;;;;5054432;28;20039;-87
2021/06/08 16:03:23;;;;;;;;;;;;;;;;;;;;;
2021/06/08 16:06:02;;;;;;;;;;;;;;;;;;;;;
2021/06/08 16:08:38;;;;;;;5.63;5.05;;;24.70;53.50;;;;;;5089709;28;20020;-86
2021/06/08 16:11:32;;;;;;;;;;;;;;;;;;;;;
2021/06/08 16:14:29;;;;;;;4.82;4.32;;;24.70;53.70;;;;;;5095023;28;20030;-86
2021/06/08 16:20:32;;;;;;;5.47;4.68;;;24.70;54.00;;;;;;5089133;28;20035;-86
2021/06/08 16:23:21;;;;;;;5.07;4.68;;;24.70;54.00;;;;;;5110233;28;20139;-86
2021/06/08 16:26:30;;;;;;;5.07;4.68;;;24.70;53.40;;;;;;5095378;28;20043;-87
2021/06/08 16:29:17;;;;;;;5.28;4.43;;;24.70;53.60;;;;;;5103400;28;20050;-86
2021/06/08 16:33:18;;;;;;;;;;;;;;;;;;;;;
2021/06/08 16:39:21;;;;;;;;;;;;;;;;;;;;;
2021/06/08 16:42:12;;;;;;;5.05;4.57;;;24.60;53.50;;;;;;5071349;28;20047;-87
2021/06/08 16:45:06;;;;;;;5.15;4.55;;;24.60;53.40;;;;;;5074021;28;20040;-87
2021/06/08 16:47:55;;;;;;;4.32;3.92;;;24.60;53.60;;;;;;5037131;28;20136;-89
2021/06/08 16:51:09;;;;;;;;;;;;;;;;;;;;;
2021/06/08 16:54:10;;;;;;;;;;;;;;;;;;;;;
2021/06/08 17:00:04;;;;;;;5.28;4.78;;;24.60;54.10;;;;;;5076325;28;20032;-86
2021/06/08 17:02:43;;;;;;;;;;;;;;;;;;;;;
2021/06/08 17:05:40;;;;;;;6.10;4.85;;;24.60;53.90;;;;;;5094785;28;20379;-86
2021/06/08 17:08:51;;;;;;;;;;;;;;;;;;;;;
2021/06/08 17:11:41;;;;;;;5.75;5.18;;;24.60;54.60;;;;;;5075469;28;20038;-87
2021/06/08 17:17:09;;;;;;;;;;;;;;;;;;;;;
2021/06/08 17:19:49;;;;;;;4.82;3.97;;;24.40;54.30;;;;;;5094140;28;20044;-87
2021/06/08 17:22:36;;;;;;;4.10;3.57;;;24.40;55.30;;;;;;5069613;28;20059;-86
2021/06/08 17:28:45;;;;;;;4.78;4.28;;;24.30;56.00;;;;;;5076363;28;20028;-85
2021/06/08 17:31:20;;;;;;;4.90;4.40;;;24.30;55.80;;;;;;5081154;28;20042;-87
2021/06/08 17:33:54;;;;;;;4.90;4.30;;;24.30;56.00;;;;;;5093232;28;20066;-86
2021/06/08 17:36:53;;;;;;;4.30;3.65;;;24.30;56.00;;;;;;5094921;28;20409;-86
2021/06/08 17:39:37;;;;;;;3.97;3.65;;;24.30;56.50;;;;;;5091065;28;20472;-88
2021/06/08 17:42:53;;;;;;;5.40;4.40;;;24.20;56.90;;;;;;5064883;28;20036;-87
2021/06/08 17:45:52;;;;;;;;;;;;;;;;;;;;;
2021/06/08 17:55:41;;;;;;;;;;;;;;;;;;;;;
2021/06/08 18:05:54;;;;;;;5.50;4.32;;;23.90;57.20;;;;;;4916211;29;20039;-86
2021/06/08 18:08:35;;;;;;;4.90;4.50;;;23.90;57.90;;;;;;5017826;28;20109;-87
2021/06/08 18:11:43;;;;;;;;;;;;;;;;;;;;;
2021/06/08 18:25:33;;;;;;;;;;;;;;;;;;;;;
